52WI weather

John'S Field
Athens, Wisconsin, United States

Public forecast

Using degrees Fahrenheit for public forecast. Weather courtesy of forecast.io.

Closest aviation weather report (METAR) to John'S Field

Closest report is Taylor County Airport, 11.0 nm (20.4 km) WSW. Retrieved 2020/04/07 00:35 UTC (0 seconds ago):

KMDZ 070035Z AUTO 14004KT 10SM SCT042 OVC050 10/01 A2987 RMK AO2 T01000011

Closest aviation forecast (TAF) to John'S Field

Closest forecast is Wausau Downtown Airport, 23.0 nm (42.6 km) SE. Retrieved 2020-04-07 00:30 UTC (49 seconds ago):

TAF KAUW 062327Z 0700/0724 13005KT P6SM SCT025 OVC035 FM070200 11005KT P6SM SCT010 OVC020 FM070700 11004KT 6SM -SHRA OVC006 FM070900 15005KT 3SM -SHRA BR OVC003 FM072000 25007G15KT 6SM -SHRA BR BKN009 FM072200 28006KT P6SM BKN020